createdAt,value
2023-04-25T00:01:05.837Z,8.60
2023-04-25T00:03:34.226Z,8.60
2023-04-25T00:06:03.282Z,8.60
2023-04-25T00:08:31.234Z,8.50
2023-04-25T00:10:59.174Z,8.60
2023-04-25T00:13:27.503Z,8.60
2023-04-25T00:15:57.114Z,8.60
2023-04-25T00:18:25.065Z,8.60
2023-04-25T00:20:52.919Z,8.60
2023-04-25T00:23:20.855Z,8.70
2023-04-25T00:25:50.544Z,8.70
2023-04-25T00:28:18.838Z,8.60
2023-04-25T00:30:46.884Z,8.60
2023-04-25T00:33:16.214Z,8.50
2023-04-25T00:35:44.318Z,8.50
2023-04-25T00:38:12.404Z,8.40
2023-04-25T00:40:40.320Z,8.40
2023-04-25T00:43:08.152Z,8.30
2023-04-25T00:45:40.977Z,8.30
2023-04-25T00:48:08.968Z,8.40
2023-04-25T00:50:38.985Z,8.30
2023-04-25T00:53:07.282Z,8.30
2023-04-25T00:55:37.015Z,8.40
2023-04-25T00:58:04.952Z,8.40
2023-04-25T01:00:32.960Z,8.30
2023-04-25T01:03:03.734Z,8.20
2023-04-25T01:05:32.074Z,8.10
2023-04-25T01:08:01.568Z,8.20
2023-04-25T01:10:29.610Z,8.10
2023-04-25T01:12:57.516Z,8.10
2023-04-25T01:15:25.734Z,8.20
2023-04-25T01:17:56.233Z,8.20
2023-04-25T01:20:27.905Z,8.20
2023-04-25T01:22:57.641Z,8.10
2023-04-25T01:25:25.926Z,8.10
2023-04-25T01:27:54.408Z,8.10
2023-04-25T01:30:22.713Z,8.00
2023-04-25T01:32:51.163Z,8.10
2023-04-25T01:35:19.095Z,8.00
2023-04-25T01:37:47.301Z,7.90
2023-04-25T01:40:16.882Z,8.00
2023-04-25T01:42:46.007Z,8.00
2023-04-25T01:45:14.600Z,7.90
2023-04-25T01:47:44.529Z,7.80
2023-04-25T01:50:13.127Z,7.80
2023-04-25T01:52:41.188Z,7.80
2023-04-25T01:55:11.162Z,7.80
2023-04-25T01:57:44.020Z,7.80
2023-04-25T02:00:15.073Z,7.90
2023-04-25T02:02:43.214Z,7.80
2023-04-25T02:05:24.022Z,7.80
2023-04-25T02:07:51.906Z,7.80
2023-04-25T02:10:19.877Z,7.70
2023-04-25T02:12:59.185Z,7.70
2023-04-25T02:15:48.688Z,7.70
2023-04-25T02:18:18.485Z,7.60
2023-04-25T02:20:46.861Z,7.60
2023-04-25T02:23:16.239Z,7.60
2023-04-25T02:25:44.315Z,7.60
2023-04-25T02:28:13.481Z,7.60
2023-04-25T02:30:41.382Z,7.60
2023-04-25T02:33:09.231Z,7.50
2023-04-25T02:35:37.675Z,7.50
2023-04-25T02:38:05.529Z,7.40
2023-04-25T02:40:34.748Z,7.40
2023-04-25T02:43:02.582Z,7.40
2023-04-25T02:45:31.814Z,7.40
2023-04-25T02:47:59.771Z,7.30
2023-04-25T02:50:27.915Z,7.30
2023-04-25T02:52:55.726Z,7.30
2023-04-25T02:55:28.710Z,7.20
2023-04-25T02:57:58.046Z,7.10
2023-04-25T03:00:49.234Z,7.30
2023-04-25T03:03:19.056Z,7.20
2023-04-25T03:05:47.892Z,7.30
2023-04-25T03:08:16.421Z,7.30
2023-04-25T03:10:45.219Z,7.30
2023-04-25T03:13:13.491Z,7.20
2023-04-25T03:15:43.875Z,7.20
2023-04-25T03:18:13.149Z,7.10
2023-04-25T03:20:42.627Z,7.10
2023-04-25T03:23:11.010Z,7.00
2023-04-25T03:25:41.400Z,7.00
2023-04-25T03:28:09.344Z,7.00
2023-04-25T03:30:37.270Z,6.90
2023-04-25T03:33:05.294Z,6.90
2023-04-25T03:35:35.030Z,6.80
2023-04-25T03:38:02.926Z,6.80
2023-04-25T03:40:35.817Z,6.70
2023-04-25T03:43:10.054Z,6.60
2023-04-25T03:45:39.836Z,6.60
2023-04-25T03:48:08.241Z,6.60
2023-04-25T03:50:37.613Z,6.60
2023-04-25T03:53:07.236Z,6.60
2023-04-25T03:55:55.045Z,6.50
2023-04-25T03:58:24.028Z,6.50
2023-04-25T04:00:51.927Z,6.50
2023-04-25T04:03:20.264Z,6.40
2023-04-25T04:05:50.005Z,6.50
2023-04-25T04:08:19.148Z,6.50
2023-04-25T04:10:47.027Z,6.40
2023-04-25T04:13:15.202Z,6.40
2023-04-25T04:15:43.470Z,6.40
2023-04-25T04:18:12.214Z,6.50
2023-04-25T04:20:40.732Z,6.40
2023-04-25T04:23:10.525Z,6.40
2023-04-25T04:25:38.670Z,6.40
2023-04-25T04:28:19.661Z,6.40
2023-04-25T04:30:53.970Z,6.50
2023-04-25T04:33:22.244Z,6.40
2023-04-25T04:35:56.668Z,6.40
2023-04-25T04:38:26.294Z,6.40
2023-04-25T04:40:57.103Z,6.40
2023-04-25T04:43:33.509Z,6.50
2023-04-25T04:46:19.931Z,6.40
2023-04-25T04:49:11.868Z,6.50
2023-04-25T04:51:59.670Z,6.50
2023-04-25T04:54:55.569Z,6.50
2023-04-25T04:57:37.829Z,6.50
2023-04-25T05:00:23.354Z,6.50
2023-04-25T05:02:57.569Z,6.50
2023-04-25T05:05:46.804Z,6.60
2023-04-25T05:08:34.931Z,6.50
2023-04-25T05:11:30.160Z,6.60
2023-04-25T05:14:17.837Z,6.70
2023-04-25T05:16:50.972Z,6.80
2023-04-25T05:19:31.896Z,6.80
2023-04-25T05:22:20.379Z,6.80
2023-04-25T05:25:10.613Z,6.80
2023-04-25T05:27:53.934Z,6.80
2023-04-25T05:30:40.301Z,6.80
2023-04-25T05:33:13.044Z,6.90
2023-04-25T05:35:41.165Z,6.90
2023-04-25T05:38:09.157Z,6.90
2023-04-25T05:40:55.812Z,7.00
2023-04-25T05:43:47.846Z,7.00
2023-04-25T05:46:42.135Z,7.00
2023-04-25T05:49:30.399Z,7.00
2023-04-25T05:52:16.977Z,6.90
2023-04-25T05:54:51.897Z,6.80
2023-04-25T05:57:25.207Z,6.80
2023-04-25T05:59:55.751Z,6.80
2023-04-25T06:02:29.655Z,6.90
2023-04-25T06:04:58.065Z,6.80
2023-04-25T06:07:26.123Z,6.90
2023-04-25T06:09:54.371Z,6.90
2023-04-25T06:12:22.202Z,7.00
2023-04-25T06:14:51.536Z,7.10
2023-04-25T06:17:20.845Z,7.10
2023-04-25T06:19:51.389Z,7.20
2023-04-25T06:22:20.098Z,7.10
2023-04-25T06:24:47.932Z,7.10
2023-04-25T06:27:17.101Z,7.10
2023-04-25T06:29:45.232Z,7.20
2023-04-25T06:32:13.178Z,7.20
2023-04-25T06:34:43.530Z,7.20
2023-04-25T06:37:11.489Z,7.20
2023-04-25T06:39:41.155Z,7.20
2023-04-25T06:42:09.435Z,7.30
2023-04-25T06:44:59.908Z,7.30
2023-04-25T06:47:30.712Z,7.40
2023-04-25T06:50:00.017Z,7.40
2023-04-25T06:52:27.926Z,7.30
2023-04-25T06:54:56.318Z,7.30
2023-04-25T06:57:36.377Z,7.20
2023-04-25T07:00:24.350Z,7.30
2023-04-25T07:02:52.370Z,7.40
2023-04-25T07:05:22.275Z,7.50
2023-04-25T07:07:50.488Z,7.50
2023-04-25T07:10:18.419Z,7.60
2023-04-25T07:12:46.415Z,7.60
2023-04-25T07:15:14.260Z,7.60
2023-04-25T07:17:46.164Z,7.50
2023-04-25T07:20:14.172Z,7.40
2023-04-25T07:22:43.836Z,7.20
2023-04-25T07:25:12.196Z,7.20
2023-04-25T07:27:41.720Z,7.20
2023-04-25T07:30:15.212Z,7.40
2023-04-25T07:32:43.177Z,7.70
2023-04-25T07:35:11.388Z,8.00
2023-04-25T07:37:39.466Z,7.90
2023-04-25T07:40:14.262Z,8.10
2023-04-25T07:42:47.190Z,8.30
2023-04-25T07:45:19.378Z,8.50
2023-04-25T07:47:47.778Z,8.50
2023-04-25T07:50:15.903Z,8.40
2023-04-25T07:52:43.839Z,8.40
2023-04-25T07:55:22.177Z,8.50
2023-04-25T07:57:59.104Z,8.40
2023-04-25T08:00:30.681Z,8.40
2023-04-25T08:03:18.830Z,8.50
2023-04-25T08:05:47.790Z,8.70
2023-04-25T08:08:16.137Z,9.00
2023-04-25T08:10:45.923Z,9.00
2023-04-25T08:13:15.012Z,9.10
2023-04-25T08:15:42.903Z,9.40
2023-04-25T08:18:11.182Z,9.60
2023-04-25T08:20:39.153Z,9.60
2023-04-25T08:23:09.699Z,9.50
2023-04-25T08:26:02.093Z,9.60
2023-04-25T08:28:31.243Z,9.50
2023-04-25T08:31:01.683Z,9.40
2023-04-25T08:33:36.693Z,9.30
2023-04-25T08:36:24.185Z,9.20
2023-04-25T08:39:03.705Z,9.10
2023-04-25T08:41:34.035Z,9.10
2023-04-25T08:44:02.822Z,8.90
2023-04-25T08:46:32.375Z,8.80
2023-04-25T08:49:23.380Z,8.40
2023-04-25T08:51:52.487Z,8.20
2023-04-25T08:54:35.686Z,8.10
2023-04-25T08:57:08.476Z,8.30
2023-04-25T08:59:39.266Z,8.60
2023-04-25T09:02:10.113Z,8.70
2023-04-25T09:04:38.531Z,8.80
2023-04-25T09:07:06.467Z,9.00
2023-04-25T09:09:35.191Z,9.10
2023-04-25T09:12:03.568Z,9.20
2023-04-25T09:14:33.315Z,9.60
2023-04-25T09:17:13.211Z,9.80
2023-04-25T09:19:51.975Z,9.70
2023-04-25T09:22:38.808Z,9.40
2023-04-25T09:25:10.712Z,9.20
2023-04-25T09:27:51.856Z,9.00
2023-04-25T09:30:33.215Z,8.90
2023-04-25T09:33:18.945Z,9.10
2023-04-25T09:35:53.826Z,9.20
2023-04-25T09:38:32.523Z,9.20
2023-04-25T09:41:12.397Z,9.10
2023-04-25T09:43:47.722Z,9.10
2023-04-25T09:46:18.363Z,9.10
2023-04-25T09:48:54.886Z,9.30
2023-04-25T09:51:33.629Z,9.10
2023-04-25T09:54:02.899Z,9.00
2023-04-25T09:56:39.278Z,9.20
2023-04-25T09:59:11.193Z,9.50
2023-04-25T10:01:42.682Z,9.70
2023-04-25T10:04:20.913Z,9.80
2023-04-25T10:07:01.438Z,9.90
2023-04-25T10:09:34.796Z,10.20
2023-04-25T10:12:02.740Z,10.30
2023-04-25T10:14:31.606Z,10.10
2023-04-25T10:17:01.616Z,10.00
2023-04-25T10:19:30.406Z,9.90
2023-04-25T10:22:08.110Z,9.80
2023-04-25T10:24:37.395Z,10.20
2023-04-25T10:27:06.256Z,10.50
2023-04-25T10:29:34.316Z,10.60
2023-04-25T10:32:04.597Z,10.40
2023-04-25T10:34:43.220Z,10.10
2023-04-25T10:37:12.481Z,9.90
2023-04-25T10:39:42.096Z,9.70
2023-04-25T10:42:10.381Z,9.60
2023-04-25T10:44:40.016Z,9.30
2023-04-25T10:47:10.858Z,8.80
2023-04-25T10:49:43.145Z,8.20
2023-04-25T10:52:19.470Z,8.00
2023-04-25T10:54:53.196Z,8.20
2023-04-25T10:57:31.512Z,8.50
2023-04-25T11:00:18.211Z,8.70
2023-04-25T11:02:49.595Z,9.10
2023-04-25T11:05:24.920Z,9.30
2023-04-25T11:08:06.447Z,9.10
2023-04-25T11:10:37.157Z,9.00
2023-04-25T11:13:05.523Z,8.80
2023-04-25T11:15:33.354Z,8.50
2023-04-25T11:18:04.094Z,8.50
2023-04-25T11:20:32.072Z,8.50
2023-04-25T11:23:00.937Z,8.60
2023-04-25T11:25:28.826Z,8.70
2023-04-25T11:27:58.153Z,9.00
2023-04-25T11:30:27.218Z,9.30
2023-04-25T11:32:55.749Z,9.60
2023-04-25T11:35:26.551Z,9.80
2023-04-25T11:37:54.566Z,9.90
2023-04-25T11:40:22.514Z,9.80
2023-04-25T11:42:50.691Z,9.70
2023-04-25T11:45:19.975Z,9.80
2023-04-25T11:47:48.034Z,9.90
2023-04-25T11:50:16.320Z,9.90
2023-04-25T11:52:47.128Z,9.90
2023-04-25T11:55:16.355Z,9.80
2023-04-25T11:57:45.712Z,9.50
2023-04-25T12:00:18.647Z,8.90
2023-04-25T12:02:48.863Z,8.30
2023-04-25T12:05:31.215Z,8.00
2023-04-25T12:08:12.960Z,8.00
2023-04-25T12:10:42.143Z,7.90
2023-04-25T12:13:23.316Z,8.10
2023-04-25T12:15:51.671Z,8.40
2023-04-25T12:18:22.759Z,8.80
2023-04-25T12:20:50.722Z,9.10
2023-04-25T12:23:28.964Z,9.30
2023-04-25T12:25:57.209Z,9.40
2023-04-25T12:28:28.220Z,9.40
2023-04-25T12:31:00.498Z,9.40
2023-04-25T12:33:30.150Z,9.40
2023-04-25T12:35:59.356Z,9.30
2023-04-25T12:38:30.889Z,9.30
2023-04-25T12:40:59.366Z,9.60
2023-04-25T12:43:27.251Z,9.60
2023-04-25T12:45:56.476Z,9.60
2023-04-25T12:48:26.880Z,9.50
2023-04-25T12:50:54.783Z,9.50
2023-04-25T12:53:25.613Z,9.30
2023-04-25T12:58:24.682Z,9.10
2023-04-25T13:00:52.558Z,8.90
2023-04-25T13:03:20.583Z,8.80
2023-04-25T13:05:48.709Z,8.60
2023-04-25T13:08:16.792Z,8.80
2023-04-25T13:10:44.606Z,9.00
2023-04-25T13:13:15.600Z,9.30
2023-04-25T13:15:43.545Z,9.70
2023-04-25T13:18:11.767Z,9.70
2023-04-25T13:20:39.820Z,9.70
2023-04-25T13:23:07.620Z,9.60
2023-04-25T13:25:35.489Z,9.50
2023-04-25T13:28:03.987Z,9.70
2023-04-25T13:30:33.187Z,9.80
2023-04-25T13:33:04.167Z,9.90
2023-04-25T13:35:32.866Z,10.10
2023-04-25T13:38:00.773Z,10.10
2023-04-25T13:40:29.179Z,10.10
2023-04-25T13:42:57.326Z,10.00
2023-04-25T13:45:25.399Z,10.20
2023-04-25T13:47:54.823Z,10.40
2023-04-25T13:50:22.851Z,10.40
2023-04-25T13:52:50.721Z,10.50
2023-04-25T13:55:19.221Z,10.40
2023-04-25T13:57:47.652Z,10.20
2023-04-25T14:00:17.140Z,10.10
2023-04-25T14:02:45.034Z,10.10
2023-04-25T14:05:14.451Z,10.40
2023-04-25T14:07:42.416Z,10.50
2023-04-25T14:10:11.071Z,10.50
2023-04-25T14:12:38.908Z,10.50
2023-04-25T14:15:07.922Z,10.60
2023-04-25T14:17:36.011Z,10.70
2023-04-25T14:20:06.382Z,10.70
2023-04-25T14:22:35.663Z,10.50
2023-04-25T14:25:04.250Z,10.50
2023-04-25T14:27:32.132Z,10.50
2023-04-25T14:29:59.956Z,10.60
2023-04-25T14:32:27.823Z,10.50
2023-04-25T14:34:55.717Z,10.40
2023-04-25T14:37:23.578Z,10.20
2023-04-25T14:39:52.836Z,10.00
2023-04-25T14:42:20.794Z,10.10
2023-04-25T14:44:48.730Z,10.10
2023-04-25T14:47:16.923Z,10.00
2023-04-25T14:49:47.617Z,10.10
2023-04-25T14:52:15.527Z,10.20
2023-04-25T14:54:43.352Z,10.30
2023-04-25T14:57:13.098Z,10.20
2023-04-25T14:59:40.954Z,10.10
2023-04-25T15:02:08.948Z,9.90
2023-04-25T15:04:36.926Z,9.80
2023-04-25T15:07:05.120Z,9.50
2023-04-25T15:09:32.928Z,9.00
2023-04-25T15:12:01.484Z,8.30
2023-04-25T15:14:30.648Z,7.90
2023-04-25T15:16:58.588Z,7.50
2023-04-25T15:19:26.698Z,7.50
2023-04-25T15:21:54.751Z,7.50
2023-04-25T15:24:22.982Z,7.50
2023-04-25T15:26:51.478Z,7.50
2023-04-25T15:29:20.131Z,7.60
2023-04-25T15:31:49.383Z,7.70
2023-04-25T15:34:17.314Z,7.90
2023-04-25T15:36:45.118Z,8.10
2023-04-25T15:39:12.993Z,8.40
2023-04-25T15:41:41.705Z,8.50
2023-04-25T15:44:10.948Z,8.60
2023-04-25T15:46:39.673Z,8.60
2023-04-25T15:49:09.387Z,8.50
2023-04-25T15:51:37.336Z,8.40
2023-04-25T15:54:05.377Z,8.60
2023-04-25T15:56:33.327Z,8.80
2023-04-25T15:59:01.113Z,8.80
2023-04-25T16:01:30.975Z,8.90
2023-04-25T16:03:59.740Z,9.10
2023-04-25T16:06:30.227Z,9.40
2023-04-25T16:08:58.127Z,9.60
2023-04-25T16:11:26.096Z,9.70
2023-04-25T16:13:54.065Z,9.70
2023-04-25T16:16:21.920Z,9.50
2023-04-25T16:18:49.795Z,9.30
2023-04-25T16:21:17.683Z,9.20
2023-04-25T16:23:46.891Z,9.20
2023-04-25T16:26:14.752Z,9.10
2023-04-25T16:28:42.598Z,9.10
2023-04-25T16:31:10.454Z,9.10
2023-04-25T16:33:38.411Z,9.00
2023-04-25T16:36:07.199Z,9.00
2023-04-25T16:38:35.140Z,8.90
2023-04-25T16:41:04.545Z,8.80
2023-04-25T16:43:32.769Z,8.80
2023-04-25T16:46:00.598Z,8.80
2023-04-25T16:48:28.495Z,8.80
2023-04-25T16:50:56.707Z,8.60
2023-04-25T16:53:24.634Z,8.20
2023-04-25T16:55:52.522Z,7.70
2023-04-25T16:58:21.847Z,7.50
2023-04-25T17:00:49.724Z,7.40
2023-04-25T17:03:17.754Z,7.30
2023-04-25T17:05:45.646Z,7.20
2023-04-25T17:08:13.522Z,7.20
2023-04-25T17:10:41.591Z,7.30
2023-04-25T17:13:09.579Z,7.40
2023-04-25T17:15:38.694Z,7.40
2023-04-25T17:18:06.687Z,7.30
2023-04-25T17:20:34.670Z,7.10
2023-04-25T17:23:02.969Z,7.10
2023-04-25T17:25:31.412Z,7.10
2023-04-25T17:27:59.276Z,7.20
2023-04-25T17:30:27.744Z,7.20
2023-04-25T17:32:57.478Z,7.30
2023-04-25T17:35:27.829Z,7.30
2023-04-25T17:37:56.745Z,7.30
2023-04-25T17:40:25.811Z,7.30
2023-04-25T17:42:53.748Z,7.20
2023-04-25T17:45:21.818Z,7.20
2023-04-25T17:47:49.677Z,7.20
2023-04-25T17:50:19.468Z,7.20
2023-04-25T17:52:48.331Z,7.10
2023-04-25T17:55:16.301Z,7.10
2023-04-25T17:57:44.201Z,7.10
2023-04-25T18:00:13.467Z,7.00
2023-04-25T18:02:42.951Z,7.00
2023-04-25T18:05:11.223Z,7.00
2023-04-25T18:07:41.545Z,7.00
2023-04-25T18:10:11.734Z,6.90
2023-04-25T18:12:40.325Z,6.90
2023-04-25T18:15:09.316Z,6.80
2023-04-25T18:17:40.296Z,6.80
2023-04-25T18:20:12.045Z,6.90
2023-04-25T18:22:41.502Z,6.90
2023-04-25T18:25:11.084Z,6.90
2023-04-25T18:27:39.742Z,6.90
2023-04-25T18:30:09.523Z,6.90
2023-04-25T18:32:37.585Z,6.90
2023-04-25T18:35:06.173Z,6.80
2023-04-25T18:37:34.332Z,6.70
2023-04-25T18:40:06.992Z,6.70
2023-04-25T18:42:34.885Z,6.60
2023-04-25T18:45:02.781Z,6.60
2023-04-25T18:47:30.628Z,6.60
2023-04-25T18:49:58.474Z,6.60
2023-04-25T18:52:26.692Z,6.60
2023-04-25T18:54:54.562Z,6.50
2023-04-25T18:57:23.787Z,6.50
2023-04-25T18:59:52.117Z,6.50
2023-04-25T19:02:20.247Z,6.60
2023-04-25T19:04:48.250Z,6.50
2023-04-25T19:07:16.353Z,6.50
2023-04-25T19:09:44.136Z,6.40
2023-04-25T19:12:12.126Z,6.40
2023-04-25T19:14:41.720Z,6.40
2023-04-25T19:17:09.723Z,6.40
2023-04-25T19:19:38.180Z,6.40
2023-04-25T19:22:07.398Z,6.40
2023-04-25T19:24:35.277Z,6.40
2023-04-25T19:27:03.293Z,6.30
2023-04-25T19:29:32.559Z,6.30
2023-04-25T19:32:03.296Z,6.30
2023-04-25T19:34:31.154Z,6.30
2023-04-25T19:36:58.951Z,6.30
2023-04-25T19:39:26.939Z,6.40
2023-04-25T19:41:56.571Z,6.40
2023-04-25T19:44:24.625Z,6.40
2023-04-25T19:46:52.587Z,6.30
2023-04-25T19:49:22.183Z,6.30
2023-04-25T19:51:50.118Z,6.30
2023-04-25T19:54:17.978Z,6.40
2023-04-25T19:56:45.882Z,6.30
2023-04-25T19:59:13.666Z,6.40
2023-04-25T20:01:41.667Z,6.40
2023-04-25T20:04:09.586Z,6.50
2023-04-25T20:06:39.017Z,6.40
2023-04-25T20:09:09.369Z,6.40
2023-04-25T20:11:37.446Z,6.40
2023-04-25T20:14:05.802Z,6.40
2023-04-25T20:16:33.757Z,6.30
2023-04-25T20:19:02.186Z,6.30
2023-04-25T20:21:33.009Z,6.30
2023-04-25T20:24:02.360Z,6.20
2023-04-25T20:26:33.696Z,6.10
2023-04-25T20:29:01.666Z,6.00
2023-04-25T20:31:32.300Z,6.00
2023-04-25T20:34:00.795Z,6.00
2023-04-25T20:36:29.642Z,6.00
2023-04-25T20:38:57.908Z,5.90
2023-04-25T20:41:27.258Z,5.90
2023-04-25T20:43:55.142Z,5.90
2023-04-25T20:46:22.981Z,5.90
2023-04-25T20:48:52.652Z,5.80
2023-04-25T20:51:21.353Z,5.70
2023-04-25T20:53:49.434Z,5.70
2023-04-25T20:56:17.294Z,5.70
2023-04-25T20:58:47.409Z,5.70
2023-04-25T21:01:15.407Z,5.70
2023-04-25T21:03:43.841Z,5.60
2023-04-25T21:06:12.315Z,5.60
2023-04-25T21:08:40.095Z,5.50
2023-04-25T21:11:08.507Z,5.60
2023-04-25T21:13:36.593Z,5.50
2023-04-25T21:16:06.654Z,5.50
2023-04-25T21:18:34.710Z,5.40
2023-04-25T21:21:04.130Z,5.40
2023-04-25T21:23:32.827Z,5.40
2023-04-25T21:26:00.725Z,5.40
2023-04-25T21:28:28.852Z,5.40
2023-04-25T21:30:56.712Z,5.40
2023-04-25T21:33:26.080Z,5.40
2023-04-25T21:35:53.941Z,5.40
2023-04-25T21:38:22.121Z,5.30
2023-04-25T21:40:50.651Z,5.30
2023-04-25T21:43:18.523Z,5.40
2023-04-25T21:46:09.177Z,5.40
2023-04-25T21:48:35.665Z,5.30
2023-04-25T21:51:04.129Z,5.30
2023-04-25T21:53:31.989Z,5.20
2023-04-25T21:55:59.886Z,5.30
2023-04-25T21:58:27.709Z,5.30
2023-04-25T22:00:56.133Z,5.20
2023-04-25T22:03:24.087Z,5.20
2023-04-25T22:05:53.505Z,5.20
2023-04-25T22:08:21.801Z,5.20
2023-04-25T22:10:49.606Z,5.10
2023-04-25T22:13:17.569Z,5.10
2023-04-25T22:15:45.804Z,5.10
2023-04-25T22:18:14.203Z,5.10
2023-04-25T22:20:42.068Z,5.10
2023-04-25T22:23:12.811Z,5.10
2023-04-25T22:25:41.973Z,5.10
2023-04-25T22:28:10.653Z,5.10
2023-04-25T22:30:38.554Z,5.00
2023-04-25T22:33:06.550Z,5.00
2023-04-25T22:35:34.474Z,5.00
2023-04-25T22:38:02.325Z,5.00
2023-04-25T22:40:31.747Z,5.00
2023-04-25T22:42:59.585Z,5.00
2023-04-25T22:45:27.520Z,4.90
2023-04-25T22:47:55.657Z,5.00
2023-04-25T22:50:23.787Z,4.90
2023-04-25T22:52:51.645Z,5.00
2023-04-25T22:55:19.574Z,5.00
2023-04-25T22:57:48.849Z,4.90
2023-04-25T23:00:19.944Z,4.90
2023-04-25T23:02:48.490Z,4.90
2023-04-25T23:05:16.760Z,4.90
2023-04-25T23:07:45.411Z,4.80
2023-04-25T23:10:13.964Z,4.80
2023-04-25T23:12:41.872Z,4.80
2023-04-25T23:15:12.405Z,4.80
2023-04-25T23:17:40.845Z,4.80
2023-04-25T23:20:11.177Z,4.80
2023-04-25T23:22:39.397Z,4.90
2023-04-25T23:25:08.910Z,4.80
2023-04-25T23:27:37.295Z,4.80
2023-04-25T23:30:06.442Z,4.90
2023-04-25T23:32:35.719Z,4.90
2023-04-25T23:35:04.964Z,4.80
2023-04-25T23:37:34.402Z,4.80
2023-04-25T23:40:02.386Z,4.80
2023-04-25T23:42:30.393Z,4.70
2023-04-25T23:44:58.172Z,4.70
2023-04-25T23:47:26.273Z,4.70
2023-04-25T23:49:55.701Z,4.60
2023-04-25T23:52:23.715Z,4.60
2023-04-25T23:54:51.611Z,4.60
2023-04-25T23:57:19.501Z,4.60
2023-04-25T23:59:47.283Z,4.60
